Time;durP1;ratioP1;P1;durP2;ratioP2;P2;SDS_P1;SDS_P2;PMS_P1;PMS_P2;Temp;Humidity;BMP_temperature;BMP_pressure;BME280_temperature;BME280_humidity;BME280_pressure;Samples;Min_cycle;Max_cycle;Signal;HPM_P1;HPM_P2
2022/10/25 04:00:18;;;;;;;2.83;2.60;;;13.20;99.90;;;;;;6196316;22;20709;-67
2022/10/25 04:02:45;;;;;;;3.23;3.03;;;13.30;99.90;;;;;;6239401;23;20792;-69
2022/10/25 04:05:12;;;;;;;2.50;2.40;;;13.30;99.90;;;;;;6241873;23;20426;-67
2022/10/25 04:07:38;;;;;;;5.23;2.93;;;13.30;99.90;;;;;;6242024;23;20445;-68
2022/10/25 04:10:06;;;;;;;2.97;2.60;;;13.30;99.90;;;;;;6242092;23;20434;-69
2022/10/25 04:12:32;;;;;;;3.53;2.97;;;13.30;99.90;;;;;;6241264;22;20789;-67
2022/10/25 04:14:59;;;;;;;2.17;2.07;;;13.30;99.90;;;;;;6243153;23;20429;-69
2022/10/25 04:17:27;;;;;;;1.97;1.87;;;13.30;99.90;;;;;;6242658;23;20429;-68
2022/10/25 04:19:54;;;;;;;1.93;1.83;;;13.30;99.90;;;;;;6240865;23;20460;-68
2022/10/25 04:22:20;;;;;;;8.53;2.83;;;13.30;99.90;;;;;;6242183;22;20451;-68
2022/10/25 04:24:47;;;;;;;2.97;2.53;;;13.30;99.90;;;;;;6241069;23;20917;-68
2022/10/25 04:27:14;;;;;;;4.83;2.30;;;13.30;99.90;;;;;;6242307;23;20503;-69
2022/10/25 04:29:40;;;;;;;2.60;2.00;;;13.30;99.90;;;;;;6242372;23;20429;-68
2022/10/25 04:32:07;;;;;;;2.30;2.00;;;13.30;99.90;;;;;;6242565;22;20438;-68
2022/10/25 04:34:35;;;;;;;2.40;2.30;;;13.30;99.90;;;;;;6240594;23;21202;-68
2022/10/25 04:37:03;;;;;;;3.90;3.30;;;13.30;99.90;;;;;;6241606;23;20494;-68
2022/10/25 04:39:30;;;;;;;3.43;3.20;;;13.30;99.90;;;;;;6241218;23;20426;-68
2022/10/25 04:41:57;;;;;;;2.43;2.13;;;13.30;99.90;;;;;;6240744;22;20457;-69
2022/10/25 04:44:23;;;;;;;2.90;2.70;;;13.30;99.90;;;;;;6240735;23;20485;-69
2022/10/25 04:46:50;;;;;;;4.30;1.77;;;13.30;99.90;;;;;;6241985;23;20421;-69
2022/10/25 04:49:18;;;;;;;20.47;2.33;;;13.20;99.90;;;;;;6242489;23;20771;-69
2022/10/25 04:51:45;;;;;;;2.87;2.67;;;13.20;99.90;;;;;;6241747;22;20450;-69
2022/10/25 04:54:12;;;;;;;5.67;2.10;;;13.30;99.90;;;;;;6240777;23;20425;-69
2022/10/25 04:56:39;;;;;;;1.90;1.80;;;13.20;99.90;;;;;;6239655;23;20426;-69
2022/10/25 04:59:06;;;;;;;5.40;2.60;;;13.30;99.90;;;;;;6241070;23;20428;-69
2022/10/25 05:01:33;;;;;;;2.65;2.45;;;13.30;99.90;;;;;;6240715;22;20507;-69
2022/10/25 05:03:59;;;;;;;5.07;3.67;;;13.30;99.90;;;;;;6240707;23;20422;-69
2022/10/25 05:06:27;;;;;;;6.00;3.20;;;13.30;99.90;;;;;;6240743;23;20425;-69
2022/10/25 05:08:55;;;;;;;2.50;2.40;;;13.20;99.90;;;;;;6241745;23;20427;-69
2022/10/25 05:11:23;;;;;;;3.13;2.83;;;13.20;99.90;;;;;;6239902;22;20442;-68
2022/10/25 05:13:50;;;;;;;2.57;2.37;;;13.20;99.90;;;;;;6241481;23;20803;-68
2022/10/25 05:16:21;;;;;;;2.10;2.03;;;13.20;99.90;;;;;;6242092;23;20795;-68
2022/10/25 05:18:49;;;;;;;1.70;1.60;;;13.20;99.90;;;;;;6243774;23;20422;-68
2022/10/25 05:21:16;;;;;;;4.10;3.07;;;13.20;99.90;;;;;;6242681;22;20446;-68
2022/10/25 05:23:43;;;;;;;2.53;2.27;;;13.20;99.90;;;;;;6241148;23;20445;-68
2022/10/25 05:26:12;;;;;;;5.20;2.50;;;13.20;99.90;;;;;;6241103;23;20422;-68
2022/10/25 05:28:41;;;;;;;2.50;1.70;;;13.20;99.90;;;;;;6241443;23;20476;-68
2022/10/25 05:31:08;;;;;;;2.60;2.50;;;13.20;99.90;;;;;;6241879;22;20486;-68
2022/10/25 05:33:35;;;;;;;4.53;2.50;;;13.20;99.90;;;;;;6241240;23;20422;-67
2022/10/25 05:36:03;;;;;;;2.40;2.30;;;13.10;99.90;;;;;;6241885;23;20431;-68
2022/10/25 05:38:30;;;;;;;2.93;2.60;;;13.10;99.90;;;;;;6240642;23;20490;-68
2022/10/25 05:40:59;;;;;;;4.27;3.10;;;13.20;99.90;;;;;;6241282;22;20442;-68
2022/10/25 05:43:27;;;;;;;4.03;3.73;;;13.20;99.90;;;;;;6240176;23;20492;-68
2022/10/25 05:46:03;;;;;;;13.60;3.90;;;13.20;99.90;;;;;;6239457;23;20433;-68
2022/10/25 05:48:31;;;;;;;2.40;2.20;;;13.20;99.90;;;;;;6241006;23;20406;-68
2022/10/25 05:51:08;;;;;;;3.10;2.80;;;13.20;99.90;;;;;;6241699;22;21094;-68
2022/10/25 05:53:35;;;;;;;3.00;2.80;;;13.20;99.90;;;;;;6241566;23;20402;-68
2022/10/25 05:56:02;;;;;;;3.10;2.80;;;13.20;99.90;;;;;;6240899;23;20488;-68
2022/10/25 05:58:30;;;;;;;16.53;3.57;;;13.20;99.90;;;;;;6241562;23;20868;-68
2022/10/25 06:00:59;;;;;;;2.97;2.87;;;13.20;99.90;;;;;;6240190;22;20507;-68
2022/10/25 06:03:26;;;;;;;12.07;3.70;;;13.10;99.90;;;;;;6240052;23;20445;-68
2022/10/25 06:05:53;;;;;;;2.83;2.70;;;13.10;99.90;;;;;;6240335;23;20423;-68
2022/10/25 06:08:20;;;;;;;3.10;2.87;;;13.10;99.90;;;;;;6241738;23;20441;-68
2022/10/25 06:10:46;;;;;;;2.23;2.10;;;13.10;99.90;;;;;;6240264;22;20447;-68
2022/10/25 06:13:13;;;;;;;5.80;2.77;;;13.10;99.90;;;;;;6250690;23;20411;-68
2022/10/25 06:15:41;;;;;;;4.57;3.30;;;13.00;99.90;;;;;;6241450;23;20524;-69
2022/10/25 06:18:08;;;;;;;5.33;2.77;;;13.00;99.90;;;;;;6241509;23;20421;-68
2022/10/25 06:20:34;;;;;;;11.17;2.90;;;13.00;99.90;;;;;;6241682;22;20959;-68
2022/10/25 06:23:01;;;;;;;5.10;3.80;;;13.00;99.90;;;;;;6240887;23;20442;-68
2022/10/25 06:25:28;;;;;;;6.83;3.87;;;13.00;99.90;;;;;;6241316;23;20429;-68
2022/10/25 06:27:54;;;;;;;4.90;2.63;;;13.00;99.90;;;;;;6241498;23;20447;-68
2022/10/25 06:30:21;;;;;;;3.73;3.37;;;13.00;99.90;;;;;;6241719;22;20421;-69
2022/10/25 06:32:49;;;;;;;4.60;2.93;;;13.00;99.90;;;;;;6242732;23;20425;-69
2022/10/25 06:35:16;;;;;;;14.70;4.53;;;13.00;99.90;;;;;;6242968;23;20757;-69
2022/10/25 06:37:42;;;;;;;3.07;2.60;;;13.00;99.90;;;;;;6243490;23;20924;-68
2022/10/25 06:40:10;;;;;;;3.40;3.10;;;13.10;99.90;;;;;;6243229;23;20422;-68
2022/10/25 06:42:37;;;;;;;5.30;2.63;;;13.20;99.90;;;;;;6242411;23;20442;-69
2022/10/25 06:45:04;;;;;;;3.17;2.47;;;13.30;99.90;;;;;;6243312;23;20437;-69
2022/10/25 06:47:31;;;;;;;4.43;3.13;;;13.30;99.90;;;;;;6242837;23;20423;-69
2022/10/25 06:49:59;;;;;;;4.20;2.50;;;13.30;99.90;;;;;;6243050;23;20422;-69
2022/10/25 06:52:28;;;;;;;2.60;2.40;;;13.30;99.90;;;;;;6242430;22;20439;-68
2022/10/25 06:54:54;;;;;;;8.20;3.60;;;13.30;99.90;;;;;;6241884;23;20411;-68
2022/10/25 06:57:21;;;;;;;5.77;3.83;;;13.30;99.90;;;;;;6242039;23;20937;-69
2022/10/25 06:59:47;;;;;;;6.00;3.17;;;13.20;99.90;;;;;;6242708;23;20872;-68
2022/10/25 07:02:14;;;;;;;3.17;2.87;;;13.30;99.90;;;;;;6241520;22;20458;-68
2022/10/25 07:04:41;;;;;;;9.03;3.07;;;13.30;99.90;;;;;;6241872;23;20528;-69
2022/10/25 07:07:09;;;;;;;3.13;2.57;;;13.30;99.90;;;;;;6242373;23;20418;-69
2022/10/25 07:09:36;;;;;;;3.07;2.37;;;13.20;99.90;;;;;;6242115;23;20448;-69
2022/10/25 07:12:02;;;;;;;2.47;2.37;;;13.20;99.90;;;;;;6242922;22;20441;-68
2022/10/25 07:14:29;;;;;;;3.20;3.00;;;13.20;99.90;;;;;;6242284;23;20407;-69
2022/10/25 07:16:57;;;;;;;5.20;2.37;;;13.20;99.90;;;;;;6243327;23;20453;-68
2022/10/25 07:19:24;;;;;;;5.87;4.03;;;13.20;99.90;;;;;;6242570;23;20570;-68
2022/10/25 07:21:51;;;;;;;2.87;2.67;;;13.20;99.90;;;;;;6243270;22;20507;-68
2022/10/25 07:24:19;;;;;;;4.27;3.87;;;13.20;99.90;;;;;;6241203;23;20449;-68
2022/10/25 07:26:45;;;;;;;4.93;2.23;;;13.30;99.90;;;;;;6242679;23;20423;-68
2022/10/25 07:29:12;;;;;;;3.33;3.23;;;13.30;99.90;;;;;;6243087;23;20422;-69
2022/10/25 07:31:43;;;;;;;3.20;3.00;;;13.30;99.90;;;;;;6243060;22;20442;-68
2022/10/25 07:34:12;;;;;;;2.33;2.23;;;13.30;99.90;;;;;;6241263;23;20419;-68
2022/10/25 07:36:38;;;;;;;4.73;2.27;;;13.30;99.90;;;;;;6242186;23;20426;-68
2022/10/25 07:39:05;;;;;;;2.57;2.47;;;13.40;99.90;;;;;;6243024;23;20431;-68
2022/10/25 07:41:34;;;;;;;5.40;3.20;;;13.40;99.90;;;;;;6241442;22;20545;-68
2022/10/25 07:44:01;;;;;;;4.27;3.53;;;13.40;99.90;;;;;;6241653;23;20448;-69
2022/10/25 07:46:28;;;;;;;12.63;2.43;;;13.40;99.90;;;;;;6241965;23;20429;-69
2022/10/25 07:48:54;;;;;;;5.10;2.97;;;13.50;99.90;;;;;;6242171;23;20430;-68
2022/10/25 07:51:21;;;;;;;2.63;2.50;;;13.50;99.90;;;;;;6242414;22;20449;-68
2022/10/25 07:53:48;;;;;;;2.80;2.70;;;13.50;99.90;;;;;;6242278;23;20793;-68
2022/10/25 07:56:17;;;;;;;4.03;3.37;;;13.50;99.90;;;;;;6240298;23;20431;-68
2022/10/25 07:58:45;;;;;;;3.37;3.10;;;13.50;99.90;;;;;;6242249;23;20423;-68
2022/10/25 08:01:17;;;;;;;3.90;3.40;;;13.60;99.90;;;;;;6243037;22;20474;-68
2022/10/25 08:03:44;;;;;;;3.20;2.87;;;13.60;99.90;;;;;;6241883;23;20451;-68
2022/10/25 08:06:11;;;;;;;3.03;2.80;;;13.60;99.90;;;;;;6243250;23;20422;-68
2022/10/25 08:08:37;;;;;;;4.20;4.00;;;13.70;99.90;;;;;;6241802;23;20430;-67
2022/10/25 08:11:06;;;;;;;9.50;3.60;;;13.70;99.90;;;;;;6239727;22;20446;-67
2022/10/25 08:13:34;;;;;;;3.03;2.83;;;13.70;99.90;;;;;;6240552;23;21021;-67
2022/10/25 08:16:03;;;;;;;2.77;2.40;;;13.60;99.90;;;;;;6240984;23;20431;-67
2022/10/25 08:18:29;;;;;;;3.03;2.87;;;13.70;99.90;;;;;;6242801;23;20426;-68
2022/10/25 08:20:56;;;;;;;3.93;3.63;;;13.70;99.90;;;;;;6242118;22;20447;-69
2022/10/25 08:23:24;;;;;;;4.00;3.77;;;13.70;99.90;;;;;;6239970;23;20491;-68
2022/10/25 08:25:51;;;;;;;2.90;2.70;;;13.70;99.90;;;;;;6241201;23;20422;-68
2022/10/25 08:28:18;;;;;;;3.77;2.90;;;13.70;99.90;;;;;;6242151;23;20419;-68
2022/10/25 08:30:45;;;;;;;2.67;2.47;;;13.70;99.90;;;;;;6240609;22;20925;-68
2022/10/25 08:33:13;;;;;;;3.40;3.20;;;13.80;99.90;;;;;;6240229;23;20418;-69
2022/10/25 08:35:39;;;;;;;4.23;3.87;;;13.80;99.90;;;;;;6242623;23;20423;-68
2022/10/25 08:38:06;;;;;;;3.70;3.50;;;13.90;99.90;;;;;;6242606;23;20419;-68
2022/10/25 08:40:46;;;;;;;3.00;2.80;;;14.00;99.90;;;;;;6239642;22;20450;-68
2022/10/25 08:43:25;;;;;;;6.70;2.53;;;14.00;99.90;;;;;;6240692;23;20485;-69
2022/10/25 08:45:56;;;;;;;4.70;4.10;;;14.00;99.90;;;;;;6242744;23;20410;-68
2022/10/25 08:48:29;;;;;;;3.10;2.63;;;14.00;99.90;;;;;;6242216;23;20430;-69
2022/10/25 08:51:00;;;;;;;5.53;3.33;;;14.00;99.90;;;;;;6241704;22;21016;-69
2022/10/25 08:53:31;;;;;;;5.53;4.27;;;14.10;99.90;;;;;;6241243;23;20402;-69
2022/10/25 08:55:59;;;;;;;6.60;3.97;;;14.10;99.90;;;;;;6241912;23;20414;-68
2022/10/25 08:58:31;;;;;;;3.30;3.10;;;14.20;99.90;;;;;;6240552;23;20730;-68
2022/10/25 09:01:03;;;;;;;2.60;2.40;;;14.30;99.90;;;;;;6241138;22;20466;-68
2022/10/25 09:03:31;;;;;;;9.40;2.93;;;14.30;99.90;;;;;;6241636;23;20501;-69
2022/10/25 09:06:09;;;;;;;4.10;3.83;;;14.30;99.90;;;;;;6241763;23;20427;-69
2022/10/25 09:08:50;;;;;;;3.97;3.77;;;14.30;99.90;;;;;;6241182;23;20407;-68
2022/10/25 09:11:32;;;;;;;5.10;3.13;;;14.30;99.90;;;;;;6240720;22;20443;-69
2022/10/25 09:14:05;;;;;;;6.43;3.10;;;14.30;99.90;;;;;;6240950;23;20433;-69
2022/10/25 09:16:38;;;;;;;4.23;3.83;;;14.30;99.90;;;;;;6241007;23;20477;-69
2022/10/25 09:19:15;;;;;;;4.03;3.80;;;14.40;99.90;;;;;;6242440;23;20741;-69
2022/10/25 09:21:46;;;;;;;6.23;3.40;;;14.40;99.90;;;;;;6242437;22;20757;-69
2022/10/25 09:24:20;;;;;;;4.83;3.50;;;14.50;99.90;;;;;;6241176;23;20431;-69
2022/10/25 09:26:55;;;;;;;4.07;3.57;;;14.50;99.90;;;;;;6241526;23;20413;-69
2022/10/25 09:29:28;;;;;;;11.10;3.00;;;14.60;99.90;;;;;;6241786;23;20407;-69
2022/10/25 09:31:58;;;;;;;4.93;3.37;;;14.60;99.90;;;;;;6240944;22;20442;-69
2022/10/25 09:34:29;;;;;;;7.03;3.03;;;14.70;99.90;;;;;;6241072;23;20430;-69
2022/10/25 09:37:04;;;;;;;3.20;3.10;;;14.70;99.90;;;;;;6241407;23;20421;-69
2022/10/25 09:39:37;;;;;;;7.70;3.23;;;14.80;99.90;;;;;;6241949;23;20407;-70
2022/10/25 09:42:06;;;;;;;2.73;2.53;;;14.80;99.90;;;;;;6241402;22;20443;-70
2022/10/25 09:44:38;;;;;;;2.50;2.40;;;14.90;99.90;;;;;;6240519;23;20971;-69
2022/10/25 09:47:17;;;;;;;2.73;2.53;;;14.90;99.90;;;;;;6241691;23;20417;-69
2022/10/25 09:49:52;;;;;;;4.43;2.53;;;14.90;99.90;;;;;;6241693;23;20458;-69
2022/10/25 09:52:24;;;;;;;2.83;2.73;;;14.80;99.90;;;;;;6242085;22;20442;-70
2022/10/25 09:54:54;;;;;;;3.43;3.10;;;14.80;99.90;;;;;;6240869;23;20403;-69
2022/10/25 09:57:21;;;;;;;4.00;3.30;;;14.70;99.90;;;;;;6241596;23;20454;-71
2022/10/25 09:59:50;;;;;;;10.07;3.50;;;14.70;99.90;;;;;;6241914;23;20420;-70
2022/10/25 10:02:22;;;;;;;4.20;3.93;;;14.70;99.90;;;;;;6241576;22;20482;-73
2022/10/25 10:04:51;;;;;;;4.43;3.10;;;14.70;99.90;;;;;;6241339;23;20465;-70
2022/10/25 10:07:22;;;;;;;3.37;2.87;;;14.70;99.90;;;;;;6243946;23;20752;-70
2022/10/25 10:09:50;;;;;;;5.60;2.63;;;14.70;99.90;;;;;;6243205;23;20503;-71
2022/10/25 10:12:23;;;;;;;9.60;2.90;;;14.80;99.90;;;;;;6242559;22;20450;-70
2022/10/25 10:14:56;;;;;;;3.33;2.70;;;14.80;99.90;;;;;;6241900;23;20406;-69
2022/10/25 10:17:24;;;;;;;3.10;2.83;;;14.90;99.90;;;;;;6241259;23;20415;-70
2022/10/25 10:20:09;;;;;;;6.93;4.63;;;15.00;99.90;;;;;;6242942;23;20423;-69
2022/10/25 10:22:37;;;;;;;3.00;2.80;;;15.00;99.90;;;;;;6239933;23;20451;-68
2022/10/25 10:25:05;;;;;;;3.70;3.40;;;15.10;99.90;;;;;;6244840;23;20447;-68
2022/10/25 10:27:33;;;;;;;5.43;3.63;;;15.20;99.90;;;;;;6244865;23;20430;-68
2022/10/25 10:30:02;;;;;;;3.47;3.20;;;15.20;99.90;;;;;;6246734;23;20761;-68
2022/10/25 10:32:33;;;;;;;3.80;2.77;;;15.30;99.90;;;;;;6244359;22;20446;-68
2022/10/25 10:35:02;;;;;;;4.27;3.77;;;15.20;99.90;;;;;;6243749;23;20491;-68
2022/10/25 10:37:32;;;;;;;3.00;2.70;;;15.20;99.90;;;;;;6243295;23;20420;-69
2022/10/25 10:40:00;;;;;;;5.10;2.70;;;15.20;99.90;;;;;;6242412;23;20925;-68
2022/10/25 10:42:34;;;;;;;3.13;2.80;;;15.30;99.90;;;;;;6242541;22;20473;-68
2022/10/25 10:45:12;;;;;;;2.40;2.00;;;15.30;99.90;;;;;;6242835;23;20431;-69
2022/10/25 10:47:42;;;;;;;2.50;2.30;;;15.40;99.90;;;;;;6242881;23;20407;-69
2022/10/25 10:50:12;;;;;;;3.57;2.43;;;15.40;99.90;;;;;;6243263;23;20763;-69
2022/10/25 10:52:43;;;;;;;9.67;2.23;;;15.30;99.90;;;;;;6242216;23;20424;-69
2022/10/25 10:55:18;;;;;;;2.20;2.10;;;15.40;99.90;;;;;;6242390;23;20404;-68
2022/10/25 10:57:45;;;;;;;4.53;2.73;;;15.40;99.90;;;;;;6242946;23;20409;-69
2022/10/25 11:00:21;;;;;;;1.90;1.80;;;15.50;99.90;;;;;;6242437;23;20434;-69
2022/10/25 11:02:48;;;;;;;2.00;1.70;;;15.60;99.90;;;;;;6241945;23;20422;-68
2022/10/25 11:05:26;;;;;;;3.53;1.77;;;15.60;99.90;;;;;;6242414;23;20462;-68
2022/10/25 11:07:57;;;;;;;3.10;1.83;;;15.70;99.90;;;;;;6242440;23;20677;-68
2022/10/25 11:10:26;;;;;;;1.73;1.73;;;15.80;99.90;;;;;;6240319;22;20762;-68
2022/10/25 11:13:11;;;;;;;5.03;2.27;;;15.70;99.90;;;;;;6241442;23;20503;-68
2022/10/25 11:16:00;;;;;;;1.83;1.73;;;15.80;99.90;;;;;;6242081;23;20423;-68
2022/10/25 11:18:36;;;;;;;3.10;2.90;;;15.80;99.90;;;;;;6242808;23;20418;-68
2022/10/25 11:21:13;;;;;;;2.90;2.67;;;15.60;99.90;;;;;;6242727;22;20444;-68
2022/10/25 11:23:57;;;;;;;2.13;1.70;;;15.50;99.90;;;;;;6241889;23;20527;-68
2022/10/25 11:26:32;;;;;;;1.60;1.60;;;15.50;99.90;;;;;;6241748;23;20987;-68
2022/10/25 11:29:08;;;;;;;2.20;2.10;;;15.60;99.90;;;;;;6243441;23;20711;-69
2022/10/25 11:31:51;;;;;;;1.60;1.60;;;15.70;99.90;;;;;;6242096;22;20455;-69
2022/10/25 11:34:24;;;;;;;3.50;1.77;;;15.80;99.90;;;;;;6241255;23;20511;-69
2022/10/25 11:37:04;;;;;;;3.23;2.50;;;15.80;99.90;;;;;;6243016;23;20414;-68
2022/10/25 11:39:42;;;;;;;1.23;1.13;;;15.70;99.90;;;;;;6242441;23;20715;-70
2022/10/25 11:42:41;;;;;;;2.23;2.13;;;15.80;99.90;;;;;;6242285;22;20444;-69
2022/10/25 11:45:34;;;;;;;1.33;1.33;;;15.80;99.90;;;;;;6219578;23;20501;-68
2022/10/25 11:48:32;;;;;;;12.47;1.70;;;15.70;99.90;;;;;;6242271;23;20427;-68
2022/10/25 11:51:06;;;;;;;2.10;2.00;;;15.70;99.90;;;;;;6218760;22;20446;-69
2022/10/25 11:53:57;;;;;;;3.57;2.20;;;15.70;99.90;;;;;;6241934;23;20755;-69
2022/10/25 11:56:32;;;;;;;1.77;1.50;;;15.70;99.90;;;;;;6240735;23;20415;-68
2022/10/25 11:59:13;;;;;;;11.60;1.97;;;15.80;99.90;;;;;;6242245;23;20442;-67
2022/10/25 12:01:52;;;;;;;1.47;1.47;;;15.80;99.90;;;;;;6241546;22;20451;-69
2022/10/25 12:04:38;;;;;;;1.60;1.57;;;16.00;99.90;;;;;;6241654;23;20431;-69
2022/10/25 12:07:10;;;;;;;1.80;1.53;;;16.20;99.90;;;;;;6242826;23;20412;-68
2022/10/25 12:09:49;;;;;;;1.20;1.20;;;16.30;99.90;;;;;;6241522;23;21068;-68
2022/10/25 12:12:21;;;;;;;1.73;1.63;;;16.40;99.90;;;;;;6241929;22;20452;-68
2022/10/25 12:14:54;;;;;;;1.00;1.00;;;16.40;99.90;;;;;;6241749;23;20434;-66
2022/10/25 12:17:26;;;;;;;1.23;1.20;;;16.30;99.90;;;;;;6242087;23;20406;-69
2022/10/25 12:19:56;;;;;;;1.03;0.90;;;16.20;99.90;;;;;;6242297;23;20735;-68
2022/10/25 12:22:28;;;;;;;9.20;1.30;;;16.10;99.90;;;;;;6241968;22;20447;-68
2022/10/25 12:24:59;;;;;;;1.00;1.00;;;16.10;99.90;;;;;;6241334;23;20435;-69
2022/10/25 12:27:29;;;;;;;0.70;0.70;;;16.10;99.90;;;;;;6241379;23;20405;-68
2022/10/25 12:30:00;;;;;;;1.40;1.30;;;16.10;99.90;;;;;;6241678;23;20430;-69
2022/10/25 12:32:32;;;;;;;2.93;1.27;;;16.10;99.90;;;;;;6242134;22;20539;-68
2022/10/25 12:35:01;;;;;;;1.97;1.87;;;16.20;99.90;;;;;;6241938;23;20407;-68
2022/10/25 12:37:36;;;;;;;1.67;1.57;;;16.30;99.90;;;;;;6242156;23;20424;-69
2022/10/25 12:40:04;;;;;;;2.50;1.47;;;16.40;99.90;;;;;;6240852;23;20494;-69
2022/10/25 12:42:40;;;;;;;1.30;1.30;;;16.50;99.90;;;;;;6238897;22;20443;-69
2022/10/25 12:45:35;;;;;;;1.00;1.00;;;16.70;99.90;;;;;;6240124;23;20434;-68
2022/10/25 12:48:18;;;;;;;4.23;0.50;;;16.80;99.90;;;;;;6239648;23;20456;-68
2022/10/25 12:50:57;;;;;;;1.03;1.03;;;16.80;99.90;;;;;;6242222;22;20444;-67
2022/10/25 12:53:55;;;;;;;1.00;1.00;;;16.80;99.90;;;;;;6240933;23;20403;-67
2022/10/25 12:56:36;;;;;;;0.80;0.80;;;16.80;99.90;;;;;;6241203;23;20421;-67
2022/10/25 12:59:13;;;;;;;0.60;0.60;;;17.00;99.90;;;;;;6242279;23;20415;-68
2022/10/25 13:02:04;;;;;;;4.57;1.23;;;17.10;99.90;;;;;;6240511;22;20455;-68
2022/10/25 13:04:48;;;;;;;1.70;1.60;;;17.10;99.90;;;;;;6241172;23;20441;-69
2022/10/25 13:07:16;;;;;;;3.00;0.67;;;17.10;99.90;;;;;;6241817;23;20452;-69
2022/10/25 13:09:43;;;;;;;6.23;1.03;;;16.90;99.90;;;;;;6241197;23;20771;-69
2022/10/25 13:12:20;;;;;;;2.33;1.23;;;16.80;99.90;;;;;;6240857;22;20449;-68
2022/10/25 13:14:51;;;;;;;2.10;1.23;;;16.70;99.90;;;;;;6240967;23;20408;-68
2022/10/25 13:17:44;;;;;;;1.30;1.30;;;16.60;99.90;;;;;;6241679;23;20405;-68
2022/10/25 13:20:45;;;;;;;2.53;1.43;;;16.60;99.90;;;;;;6241719;23;20453;-69
2022/10/25 13:24:01;;;;;;;2.40;0.70;;;16.60;99.90;;;;;;6241311;23;20420;-68
2022/10/25 13:26:30;;;;;;;1.03;1.03;;;16.60;99.90;;;;;;6239721;23;20451;-68
2022/10/25 13:28:59;;;;;;;2.47;0.80;;;16.50;99.90;;;;;;6241902;23;20424;-67
2022/10/25 13:31:47;;;;;;;1.27;1.27;;;16.60;99.90;;;;;;6241511;22;20440;-68
2022/10/25 13:34:28;;;;;;;1.27;1.27;;;16.70;99.90;;;;;;6241419;23;20412;-68
2022/10/25 13:36:56;;;;;;;0.53;0.53;;;16.70;99.90;;;;;;6241511;23;20428;-68
2022/10/25 13:39:26;;;;;;;1.63;1.53;;;16.80;99.90;;;;;;6240679;23;20440;-68
2022/10/25 13:41:54;;;;;;;1.70;0.90;;;16.80;99.90;;;;;;6241428;22;20442;-68
2022/10/25 13:44:25;;;;;;;1.50;1.03;;;16.80;99.90;;;;;;6240803;23;20425;-69
2022/10/25 13:46:54;;;;;;;3.70;1.00;;;16.80;99.90;;;;;;6241843;23;20437;-68
2022/10/25 13:49:31;;;;;;;2.60;1.20;;;16.70;99.90;;;;;;6240785;23;20420;-68
2022/10/25 13:52:00;;;;;;;1.50;1.03;;;16.60;99.90;;;;;;6241225;22;20554;-69
2022/10/25 13:54:36;;;;;;;2.00;1.20;;;16.50;99.90;;;;;;6240219;23;20420;-67
2022/10/25 13:57:03;;;;;;;1.00;1.00;;;16.30;99.90;;;;;;6241018;23;20418;-69
2022/10/25 13:59:57;;;;;;;1.23;0.87;;;16.20;99.90;;;;;;6241199;23;20472;-68
2022/10/25 14:02:25;;;;;;;1.07;1.07;;;16.20;99.90;;;;;;6241418;22;20977;-68
2022/10/25 14:04:52;;;;;;;1.27;1.27;;;16.10;99.90;;;;;;6239793;23;20629;-68
2022/10/25 14:07:51;;;;;;;3.50;1.20;;;16.00;99.90;;;;;;6241434;23;20476;-68
2022/10/25 14:10:28;;;;;;;1.07;1.00;;;15.90;99.90;;;;;;6147626;23;20466;-68
2022/10/25 14:13:05;;;;;;;7.27;1.33;;;15.80;99.90;;;;;;6226548;23;20431;-69
2022/10/25 14:15:43;;;;;;;0.83;0.83;;;15.70;99.90;;;;;;6242005;23;20397;-69
2022/10/25 14:18:18;;;;;;;1.27;1.17;;;15.60;99.90;;;;;;6241717;23;20401;-69
2022/10/25 14:20:47;;;;;;;1.53;1.53;;;15.60;99.90;;;;;;6241543;22;20438;-70
2022/10/25 14:23:16;;;;;;;1.60;1.00;;;15.60;99.90;;;;;;6240301;23;20419;-69
2022/10/25 14:25:50;;;;;;;1.93;1.93;;;15.60;99.90;;;;;;6238951;23;20463;-70
2022/10/25 14:28:21;;;;;;;1.13;1.13;;;15.50;99.90;;;;;;6239477;23;20442;-68
2022/10/25 14:30:50;;;;;;;1.27;1.27;;;15.50;99.90;;;;;;6241505;22;20711;-69
2022/10/25 14:33:24;;;;;;;3.33;1.50;;;15.50;99.90;;;;;;6240498;23;20920;-70
2022/10/25 14:35:53;;;;;;;2.57;1.37;;;15.40;99.90;;;;;;6240287;23;20403;-69
2022/10/25 14:38:22;;;;;;;2.20;1.33;;;15.40;99.90;;;;;;6241575;23;20441;-70
2022/10/25 14:40:54;;;;;;;1.10;1.10;;;15.40;99.90;;;;;;6240988;22;20455;-69
2022/10/25 14:43:29;;;;;;;0.87;0.87;;;15.50;99.90;;;;;;6240575;23;20422;-70
2022/10/25 14:46:13;;;;;;;1.80;1.70;;;15.50;99.90;;;;;;6240841;23;20428;-69
2022/10/25 14:48:42;;;;;;;7.30;1.37;;;15.50;99.90;;;;;;6241513;23;20538;-67
2022/10/25 14:51:13;;;;;;;1.10;1.10;;;15.50;99.90;;;;;;6239733;22;20443;-69
2022/10/25 14:53:50;;;;;;;1.13;1.03;;;15.50;99.90;;;;;;6242881;23;20423;-69
2022/10/25 14:56:21;;;;;;;1.10;1.10;;;15.50;99.90;;;;;;6242545;23;20482;-69
2022/10/25 14:58:48;;;;;;;1.40;1.40;;;15.50;99.90;;;;;;6242836;23;20411;-69
2022/10/25 15:01:20;;;;;;;1.20;1.20;;;15.50;99.90;;;;;;6241947;22;20462;-67
2022/10/25 15:03:50;;;;;;;1.20;1.07;;;15.50;99.90;;;;;;6242940;23;20407;-68
2022/10/25 15:06:20;;;;;;;1.30;1.30;;;15.40;99.90;;;;;;6242921;23;20518;-68
2022/10/25 15:08:47;;;;;;;1.60;1.20;;;15.40;99.90;;;;;;6243671;23;20426;-69
2022/10/25 15:11:16;;;;;;;1.87;1.77;;;15.40;99.90;;;;;;6241507;22;20447;-69
2022/10/25 15:13:44;;;;;;;1.63;1.63;;;15.40;99.90;;;;;;6242628;23;20420;-68
2022/10/25 15:16:29;;;;;;;1.10;1.10;;;15.30;99.90;;;;;;6242495;23;20530;-68
2022/10/25 15:19:06;;;;;;;1.00;1.00;;;15.30;99.90;;;;;;6243720;23;20403;-68
2022/10/25 15:21:41;;;;;;;1.47;1.00;;;15.20;99.90;;;;;;6242172;22;20532;-69
2022/10/25 15:24:13;;;;;;;3.77;2.10;;;15.20;99.90;;;;;;6242424;23;20425;-69
2022/10/25 15:26:51;;;;;;;1.77;1.77;;;15.10;99.90;;;;;;6242284;23;20824;-69
2022/10/25 15:29:30;;;;;;;1.73;1.63;;;15.00;99.90;;;;;;6243148;23;20420;-69
2022/10/25 15:31:57;;;;;;;1.37;1.27;;;14.90;99.90;;;;;;6242295;22;20469;-69
2022/10/25 15:34:25;;;;;;;1.50;1.33;;;14.90;99.90;;;;;;6242595;23;20430;-68
2022/10/25 15:36:53;;;;;;;1.27;1.10;;;14.90;99.90;;;;;;6243014;23;20412;-69
2022/10/25 15:39:26;;;;;;;2.07;2.00;;;14.80;99.90;;;;;;6242726;23;20439;-68
2022/10/25 15:41:53;;;;;;;3.70;1.37;;;14.80;99.90;;;;;;6242441;22;20507;-69
2022/10/25 15:44:21;;;;;;;1.43;1.43;;;14.70;99.90;;;;;;6241771;23;20488;-68
2022/10/25 15:46:49;;;;;;;1.60;1.60;;;14.70;99.90;;;;;;6241048;23;20451;-68
2022/10/25 15:49:16;;;;;;;2.30;2.13;;;14.60;99.90;;;;;;6242628;23;20427;-68
2022/10/25 15:51:45;;;;;;;2.80;1.50;;;14.60;99.90;;;;;;6242416;22;20465;-68
2022/10/25 15:54:15;;;;;;;2.43;1.63;;;14.50;99.90;;;;;;6242013;23;20433;-68
2022/10/25 15:56:42;;;;;;;1.40;1.30;;;14.40;99.90;;;;;;6241777;23;20414;-68
2022/10/25 15:59:08;;;;;;;2.07;1.97;;;14.40;99.90;;;;;;6241903;23;20430;-69
2022/10/25 16:01:35;;;;;;;1.43;1.43;;;14.30;99.90;;;;;;6241815;22;20512;-66
2022/10/25 16:04:02;;;;;;;2.47;2.37;;;14.30;99.90;;;;;;6240913;23;20991;-68
2022/10/25 16:06:29;;;;;;;2.20;2.10;;;14.20;99.90;;;;;;6241771;23;20974;-67
2022/10/25 16:08:57;;;;;;;1.20;1.20;;;14.20;99.90;;;;;;6243202;23;20733;-68
2022/10/25 16:11:24;;;;;;;1.80;1.70;;;14.10;99.90;;;;;;6242048;22;20450;-67
2022/10/25 16:13:53;;;;;;;4.20;1.90;;;14.10;99.90;;;;;;6241951;23;20429;-69
2022/10/25 16:16:23;;;;;;;4.03;2.00;;;14.10;99.90;;;;;;6242514;23;20418;-68
2022/10/25 16:18:50;;;;;;;2.27;1.93;;;14.00;99.90;;;;;;6242428;23;20716;-68
2022/10/25 16:21:18;;;;;;;2.17;2.17;;;14.00;99.90;;;;;;6242061;22;20782;-69
2022/10/25 16:23:45;;;;;;;1.23;1.20;;;13.90;99.90;;;;;;6241334;23;20512;-68
2022/10/25 16:26:23;;;;;;;1.83;1.83;;;13.90;99.90;;;;;;6242193;23;20467;-67
2022/10/25 16:28:50;;;;;;;1.70;1.70;;;13.80;99.90;;;;;;6242983;23;20413;-68
2022/10/25 16:31:17;;;;;;;2.70;2.20;;;13.80;99.90;;;;;;6242514;22;20443;-69
2022/10/25 16:33:43;;;;;;;2.73;2.63;;;13.70;99.90;;;;;;6242072;23;20426;-70
2022/10/25 16:36:12;;;;;;;2.77;2.67;;;13.70;99.90;;;;;;6242671;23;20446;-69
2022/10/25 16:38:39;;;;;;;3.90;2.27;;;13.60;99.90;;;;;;6243620;23;20422;-69
2022/10/25 16:41:06;;;;;;;2.63;2.53;;;13.60;99.90;;;;;;6251668;22;20465;-69
2022/10/25 16:43:34;;;;;;;2.67;2.47;;;13.60;99.90;;;;;;6241271;23;20429;-70
2022/10/25 16:46:00;;;;;;;4.20;2.27;;;13.50;99.90;;;;;;6242462;23;20480;-69
2022/10/25 16:48:28;;;;;;;2.37;2.17;;;13.50;99.90;;;;;;6242320;23;20936;-69
2022/10/25 16:50:54;;;;;;;2.40;2.37;;;13.40;99.90;;;;;;6242406;22;20469;-69
2022/10/25 16:53:21;;;;;;;5.47;2.50;;;13.40;99.90;;;;;;6240938;23;20921;-69
2022/10/25 16:55:48;;;;;;;2.77;2.60;;;13.40;99.90;;;;;;6241973;23;20418;-69
2022/10/25 16:58:14;;;;;;;3.07;2.33;;;13.30;99.90;;;;;;6240902;23;20437;-68
2022/10/25 17:00:42;;;;;;;4.23;3.10;;;13.20;99.90;;;;;;6241695;22;20453;-69
2022/10/25 17:03:09;;;;;;;1.77;1.77;;;13.20;99.90;;;;;;6241924;23;20422;-69
2022/10/25 17:05:37;;;;;;;2.83;2.70;;;13.10;99.90;;;;;;6240545;23;20449;-67